aviador You're here:

KHUF Decoded Metar

TERRE HAUTE in IN, USA
Report Time2018-05-21 23:53:00
UTC Time2018-05-22 00:05:01
Flight Rules vfr VFR
Wind270° at 06 kt
W.Decomp.*RWY 23: 4.5 kt HW 4.0 kt RCW
RWY 32: 4.0 kt HW 4.5 kt LCW
RWY 36: 0.2 kt HW 6 kt LCW
W.Rank270° ranks 25
Current wind is below 270° avg. (7.8)
Visibility9999 m
Phenomena:N/A
Clouds:Broken 046 Hf
Expected CloudBase > 3,200 ft AGL from Temp-Dew spread
Ceiling4,600 ft
Temp26°C (ISA +12)
Dew Point18°C (61% RH)
QNH1016 hPa
Density Alt2,165 ft
Elevation587 ft
Report Wrong Elevation
Raw Report
KHUF 212353Z 27006KT 10SM BKN046 26/18 A3000 RMK AO2 LTG DSNT S
SLP154 60000 T02610178 10278 20256 50000=

Extra information for KHUF:More info

Metar Taf Metar & Taf Last 4 Metars F.Rules Stats Wind Profile Meteogram Temp Stats Airport Information Weather charts Add Link Nearby VenuesMetar ALERT Operation Metar Decoded Social comments

AIRNAV info for KHUF